createdAt,value
2022-12-22T00:02:43.695Z,7.33
2022-12-22T00:05:34.277Z,6.90
2022-12-22T00:08:20.064Z,8.07
2022-12-22T00:11:05.946Z,7.40
2022-12-22T00:13:53.685Z,6.40
2022-12-22T00:16:39.926Z,9.30
2022-12-22T00:19:31.605Z,7.37
2022-12-22T00:22:21.340Z,5.97
2022-12-22T00:25:07.283Z,5.47
2022-12-22T00:27:53.563Z,6.57
2022-12-22T00:30:41.197Z,6.23
2022-12-22T00:33:30.227Z,4.10
2022-12-22T00:36:15.811Z,9.43
2022-12-22T00:39:01.099Z,8.17
2022-12-22T00:41:46.369Z,6.80
2022-12-22T00:44:32.260Z,13.83
2022-12-22T00:47:19.078Z,7.90
2022-12-22T00:50:07.472Z,8.03
2022-12-22T00:52:54.035Z,10.93
2022-12-22T00:55:48.456Z,6.67
2022-12-22T00:58:37.784Z,7.77
2022-12-22T01:01:23.709Z,6.77
2022-12-22T01:04:10.802Z,11.70
2022-12-22T01:06:56.349Z,7.33
2022-12-22T01:09:42.618Z,5.33
2022-12-22T01:12:32.942Z,6.27
2022-12-22T01:15:18.563Z,6.00
2022-12-22T01:18:04.108Z,13.30
2022-12-22T01:20:51.394Z,5.17
2022-12-22T01:23:37.029Z,6.03
2022-12-22T01:26:22.430Z,8.73
2022-12-22T01:29:08.103Z,9.53
2022-12-22T01:31:53.342Z,7.17
2022-12-22T01:34:39.534Z,6.87
2022-12-22T01:37:26.391Z,7.73
2022-12-22T01:40:12.155Z,10.70
2022-12-22T01:42:57.737Z,15.40
2022-12-22T01:45:45.811Z,10.37
2022-12-22T01:48:33.022Z,10.77
2022-12-22T01:51:21.060Z,9.17
2022-12-22T01:54:08.033Z,8.43
2022-12-22T01:56:53.664Z,11.63
2022-12-22T01:59:39.539Z,11.47
2022-12-22T02:02:26.323Z,8.20
2022-12-22T02:05:14.899Z,8.27
2022-12-22T02:08:14.824Z,8.47
2022-12-22T02:11:25.860Z,11.47
2022-12-22T02:14:30.370Z,9.00
2022-12-22T02:17:25.448Z,11.87
2022-12-22T02:20:46.959Z,9.20
2022-12-22T02:23:44.894Z,9.30
2022-12-22T02:26:45.201Z,12.90
2022-12-22T02:29:32.784Z,7.87
2022-12-22T02:32:18.466Z,8.17
2022-12-22T02:35:03.920Z,7.10
2022-12-22T02:37:59.921Z,12.67
2022-12-22T02:40:51.291Z,9.27
2022-12-22T02:43:51.673Z,8.20
2022-12-22T02:46:45.074Z,8.00
2022-12-22T02:49:37.347Z,12.90
2022-12-22T02:52:29.093Z,5.83
2022-12-22T02:55:14.684Z,6.43
2022-12-22T02:58:00.645Z,9.60
2022-12-22T03:00:47.375Z,8.17
2022-12-22T03:03:33.354Z,5.97
2022-12-22T03:06:19.017Z,6.87
2022-12-22T03:09:04.731Z,6.80
2022-12-22T03:11:50.247Z,5.13
2022-12-22T03:14:35.873Z,7.30
2022-12-22T03:17:22.712Z,5.37
2022-12-22T03:20:07.969Z,5.20
2022-12-22T03:22:53.716Z,5.50
2022-12-22T03:25:39.231Z,5.53
2022-12-22T03:28:08.887Z,4.73
2022-12-22T03:30:36.699Z,5.63
2022-12-22T03:33:04.970Z,7.27
2022-12-22T03:35:32.191Z,6.73
2022-12-22T03:38:03.278Z,7.30
2022-12-22T03:40:31.488Z,6.43
2022-12-22T03:43:16.715Z,7.57
2022-12-22T03:46:02.593Z,5.67
2022-12-22T03:48:31.153Z,6.37
2022-12-22T03:50:58.015Z,6.03
2022-12-22T03:53:25.204Z,5.83
2022-12-22T03:55:52.033Z,5.97
2022-12-22T03:58:19.166Z,11.67
2022-12-22T04:00:46.329Z,5.83
2022-12-22T04:03:14.246Z,6.53
2022-12-22T04:05:43.266Z,6.33
2022-12-22T04:08:10.079Z,6.30
2022-12-22T04:10:55.444Z,10.57
2022-12-22T04:13:22.670Z,8.63
2022-12-22T04:15:49.446Z,9.30
2022-12-22T04:18:16.623Z,6.93
2022-12-22T04:20:44.771Z,6.50
2022-12-22T04:23:11.566Z,6.33
2022-12-22T04:25:38.708Z,7.57
2022-12-22T04:28:05.823Z,6.87
2022-12-22T04:30:32.638Z,7.23
2022-12-22T04:32:59.573Z,11.10
2022-12-22T04:35:26.684Z,11.97
2022-12-22T04:37:55.175Z,12.40
2022-12-22T04:40:22.025Z,12.77
2022-12-22T04:42:49.174Z,13.97
2022-12-22T04:45:16.120Z,10.70
2022-12-22T04:47:43.584Z,11.77
2022-12-22T04:50:11.012Z,7.33
2022-12-22T04:52:38.474Z,9.70
2022-12-22T04:55:07.565Z,7.57
2022-12-22T04:57:40.273Z,8.70
2022-12-22T05:00:09.587Z,7.80
2022-12-22T05:02:36.858Z,8.77
2022-12-22T05:05:03.973Z,8.13
2022-12-22T05:07:31.205Z,7.80
2022-12-22T05:09:58.165Z,6.53
2022-12-22T05:12:45.455Z,6.37
2022-12-22T05:15:13.077Z,6.53
2022-12-22T05:17:40.210Z,7.80
2022-12-22T05:20:08.581Z,8.60
2022-12-22T05:22:35.799Z,6.17
2022-12-22T05:25:02.738Z,6.27
2022-12-22T05:27:31.251Z,5.60
2022-12-22T05:29:58.096Z,6.17
2022-12-22T05:32:24.949Z,6.10
2022-12-22T05:34:52.202Z,5.40
2022-12-22T05:37:19.138Z,5.10
2022-12-22T05:39:46.389Z,5.40
2022-12-22T05:42:13.175Z,5.13
2022-12-22T05:44:41.572Z,5.33
2022-12-22T05:47:08.386Z,5.70
2022-12-22T05:49:35.562Z,5.40
2022-12-22T05:52:02.408Z,5.00
2022-12-22T05:54:29.645Z,6.33
2022-12-22T05:56:56.437Z,5.17
2022-12-22T05:59:23.408Z,5.50
2022-12-22T06:01:51.529Z,6.90
2022-12-22T06:04:18.955Z,5.63
2022-12-22T06:06:45.900Z,8.30
2022-12-22T06:09:13.281Z,5.57
2022-12-22T06:11:40.070Z,6.50
2022-12-22T06:14:06.950Z,6.10
2022-12-22T06:16:33.893Z,7.37
2022-12-22T06:19:02.092Z,6.57
2022-12-22T06:21:28.967Z,6.10
2022-12-22T06:23:56.007Z,5.70
2022-12-22T06:26:22.869Z,11.53
2022-12-22T06:28:49.923Z,7.03
2022-12-22T06:31:16.806Z,5.93
2022-12-22T06:33:43.918Z,6.30
2022-12-22T06:36:12.242Z,5.93
2022-12-22T06:38:39.142Z,5.40
2022-12-22T06:41:06.358Z,7.20
2022-12-22T06:43:33.562Z,5.97
2022-12-22T06:46:00.537Z,5.63
2022-12-22T06:48:27.384Z,8.50
2022-12-22T06:50:58.376Z,7.13
2022-12-22T06:53:27.414Z,7.67
2022-12-22T06:55:54.212Z,13.90
2022-12-22T06:58:21.037Z,6.43
2022-12-22T07:00:49.685Z,6.43
2022-12-22T07:03:17.395Z,5.80
2022-12-22T07:05:44.497Z,6.93
2022-12-22T07:08:11.400Z,7.60
2022-12-22T07:10:57.804Z,6.43
2022-12-22T07:13:27.734Z,6.23
2022-12-22T07:16:00.535Z,6.80
2022-12-22T07:18:30.183Z,5.60
2022-12-22T07:20:57.165Z,6.20
2022-12-22T07:23:24.689Z,6.17
2022-12-22T07:25:52.935Z,6.63
2022-12-22T07:28:21.262Z,5.77
2022-12-22T07:30:49.573Z,6.80
2022-12-22T07:33:16.460Z,6.70
2022-12-22T07:35:43.926Z,6.80
2022-12-22T07:38:10.995Z,10.70
2022-12-22T07:40:41.736Z,11.73
2022-12-22T07:43:10.890Z,13.53
2022-12-22T07:45:38.104Z,9.30
2022-12-22T07:48:28.238Z,11.13
2022-12-22T07:51:01.894Z,8.10
2022-12-22T07:53:28.715Z,7.87
2022-12-22T07:55:55.590Z,8.17
2022-12-22T07:58:23.715Z,9.10
2022-12-22T08:00:50.622Z,7.57
2022-12-22T08:03:17.692Z,8.17
2022-12-22T08:05:46.171Z,8.47
2022-12-22T08:08:12.937Z,12.37
2022-12-22T08:10:40.086Z,8.57
2022-12-22T08:13:07.218Z,8.63
2022-12-22T08:15:37.973Z,8.53
2022-12-22T08:18:04.925Z,15.33
2022-12-22T08:20:31.945Z,11.33
2022-12-22T08:22:58.897Z,8.27
2022-12-22T08:25:26.011Z,7.97
2022-12-22T08:27:56.344Z,7.87
2022-12-22T08:30:24.740Z,7.70
2022-12-22T08:32:52.978Z,10.00
2022-12-22T08:35:20.178Z,8.73
2022-12-22T08:37:48.325Z,8.30
2022-12-22T08:40:21.447Z,10.80
2022-12-22T08:42:50.122Z,8.47
2022-12-22T08:45:17.471Z,10.90
2022-12-22T08:47:44.287Z,9.17
2022-12-22T08:50:13.893Z,9.30
2022-12-22T08:52:40.782Z,9.43
2022-12-22T08:55:09.350Z,9.33
2022-12-22T08:57:36.185Z,8.30
2022-12-22T09:00:04.574Z,9.43
2022-12-22T09:02:31.974Z,11.10
2022-12-22T09:04:59.031Z,11.53
2022-12-22T09:07:27.340Z,9.87
2022-12-22T09:09:55.126Z,12.93
2022-12-22T09:12:22.067Z,13.23
2022-12-22T09:14:48.932Z,14.13
2022-12-22T09:17:15.711Z,10.93
2022-12-22T09:19:42.961Z,11.20
2022-12-22T09:22:11.124Z,10.53
2022-12-22T09:24:39.769Z,10.87
2022-12-22T09:27:09.056Z,10.20
2022-12-22T09:29:37.207Z,10.67
2022-12-22T09:32:04.527Z,11.57
2022-12-22T09:34:31.561Z,12.17
2022-12-22T09:36:58.413Z,11.57
2022-12-22T09:39:29.084Z,11.50
2022-12-22T09:41:58.098Z,9.83
2022-12-22T09:44:28.231Z,11.87
2022-12-22T09:46:57.910Z,14.20
2022-12-22T09:49:25.813Z,14.53
2022-12-22T09:51:56.176Z,13.73
2022-12-22T09:54:24.660Z,16.00
2022-12-22T09:56:51.569Z,14.13
2022-12-22T09:59:22.040Z,13.40
2022-12-22T10:02:06.340Z,10.77
2022-12-22T10:04:45.392Z,12.07
2022-12-22T10:07:21.469Z,15.03
2022-12-22T10:09:51.079Z,15.83
2022-12-22T10:12:20.197Z,18.93
2022-12-22T10:14:50.693Z,14.60
2022-12-22T10:17:20.319Z,12.17
2022-12-22T10:19:48.718Z,11.90
2022-12-22T10:22:28.959Z,11.57
2022-12-22T10:24:56.277Z,11.23
2022-12-22T10:27:29.281Z,13.90
2022-12-22T10:30:19.857Z,12.40
2022-12-22T10:33:03.430Z,14.73
2022-12-22T10:35:43.245Z,14.57
2022-12-22T10:38:22.497Z,18.00
2022-12-22T10:40:56.554Z,17.27
2022-12-22T10:43:29.648Z,15.77
2022-12-22T10:45:58.904Z,13.70
2022-12-22T10:48:28.360Z,16.97
2022-12-22T10:50:56.707Z,13.83
2022-12-22T10:53:41.959Z,15.90
2022-12-22T10:56:20.327Z,17.57
2022-12-22T10:58:50.309Z,17.23
2022-12-22T11:01:29.693Z,20.23
2022-12-22T11:03:58.611Z,22.07
2022-12-22T11:06:25.581Z,13.87
2022-12-22T11:08:52.488Z,15.67
2022-12-22T11:11:32.442Z,15.97
2022-12-22T11:14:11.498Z,14.00
2022-12-22T11:16:46.873Z,14.93
2022-12-22T11:19:38.478Z,15.07
2022-12-22T11:22:18.655Z,14.00
2022-12-22T11:24:55.666Z,13.27
2022-12-22T11:27:31.527Z,18.10
2022-12-22T11:30:07.546Z,12.27
2022-12-22T11:33:00.017Z,14.73
2022-12-22T11:35:38.637Z,13.37
2022-12-22T11:38:17.431Z,11.27
2022-12-22T11:40:46.958Z,11.50
2022-12-22T11:43:25.791Z,11.73
2022-12-22T11:46:05.277Z,11.27
2022-12-22T11:49:04.047Z,9.70
2022-12-22T11:51:51.737Z,9.80
2022-12-22T11:54:38.278Z,10.50
2022-12-22T11:57:15.417Z,10.13
2022-12-22T11:59:52.121Z,9.73
2022-12-22T12:02:48.134Z,12.57
2022-12-22T12:05:31.538Z,10.43
2022-12-22T12:08:06.288Z,10.27
2022-12-22T12:10:40.234Z,11.43
2022-12-22T12:13:19.473Z,10.83
2022-12-22T12:15:55.927Z,14.80
2022-12-22T12:18:46.278Z,12.47
2022-12-22T12:21:26.825Z,12.87
2022-12-22T12:24:14.045Z,15.80
2022-12-22T12:26:49.807Z,16.53
2022-12-22T12:29:20.539Z,18.70
2022-12-22T12:31:53.670Z,17.93
2022-12-22T12:34:22.833Z,20.73
2022-12-22T12:36:57.869Z,24.87
2022-12-22T12:39:33.842Z,22.73
2022-12-22T12:42:13.166Z,25.47
2022-12-22T12:44:40.283Z,24.53
2022-12-22T12:47:24.303Z,28.30
2022-12-22T12:50:02.983Z,24.47
2022-12-22T12:53:12.731Z,24.13
2022-12-22T12:56:11.298Z,26.93
2022-12-22T12:58:52.848Z,25.17
2022-12-22T13:01:57.499Z,24.30
2022-12-22T13:05:13.160Z,27.43
2022-12-22T13:08:09.318Z,25.43
2022-12-22T13:10:39.433Z,25.07
2022-12-22T13:13:34.732Z,26.00
2022-12-22T13:16:22.846Z,25.40
2022-12-22T13:18:51.522Z,27.60
2022-12-22T13:24:26.545Z,35.37
2022-12-22T13:26:55.236Z,37.17
2022-12-22T13:29:35.659Z,33.33
2022-12-22T13:32:04.891Z,32.40
2022-12-22T13:35:20.171Z,28.13
2022-12-22T13:37:29.957Z,30.83
2022-12-22T13:40:10.098Z,30.50
2022-12-22T13:42:40.154Z,31.07
2022-12-22T13:45:31.434Z,26.73
2022-12-22T13:48:00.835Z,22.90
2022-12-22T13:50:33.089Z,25.10
2022-12-22T13:53:02.860Z,23.67
2022-12-22T13:55:32.476Z,25.23
2022-12-22T13:58:06.097Z,31.87
2022-12-22T14:00:35.055Z,26.17
2022-12-22T14:03:02.534Z,28.00
2022-12-22T14:05:32.947Z,25.53
2022-12-22T14:08:02.451Z,29.53
2022-12-22T14:10:34.539Z,26.47
2022-12-22T14:13:06.660Z,30.70
2022-12-22T14:15:35.452Z,27.87
2022-12-22T14:18:02.924Z,29.60
2022-12-22T14:20:33.085Z,29.00
2022-12-22T14:23:04.482Z,23.97
2022-12-22T14:25:33.862Z,25.17
2022-12-22T14:28:01.248Z,25.53
2022-12-22T14:30:37.836Z,26.47
2022-12-22T14:33:30.243Z,28.73
2022-12-22T14:36:15.577Z,25.83
2022-12-22T14:38:44.984Z,25.77
2022-12-22T14:41:37.460Z,27.60
2022-12-22T14:44:05.481Z,30.17
2022-12-22T14:46:38.646Z,26.17
2022-12-22T14:49:14.402Z,26.80
2022-12-22T14:51:41.349Z,28.47
2022-12-22T14:54:19.902Z,30.57
2022-12-22T14:56:48.826Z,32.43
2022-12-22T14:59:25.284Z,28.67
2022-12-22T15:02:01.523Z,29.73
2022-12-22T15:04:30.770Z,35.87
2022-12-22T15:07:45.827Z,33.40
2022-12-22T15:10:15.008Z,31.23
2022-12-22T15:12:44.356Z,28.60
2022-12-22T15:15:19.722Z,30.03
2022-12-22T15:17:48.841Z,32.17
2022-12-22T15:20:19.755Z,31.03
2022-12-22T15:22:47.363Z,32.57
2022-12-22T15:25:15.949Z,32.83
2022-12-22T15:27:44.184Z,35.17
2022-12-22T15:30:13.649Z,36.33
2022-12-22T15:32:41.781Z,33.43
2022-12-22T15:35:18.683Z,34.60
2022-12-22T15:37:46.395Z,33.90
2022-12-22T15:40:16.365Z,31.17
2022-12-22T15:42:43.312Z,38.87
2022-12-22T15:45:11.052Z,34.97
2022-12-22T15:47:38.506Z,35.97
2022-12-22T15:50:07.123Z,35.53
2022-12-22T15:52:35.549Z,35.50
2022-12-22T15:55:02.422Z,35.23
2022-12-22T15:57:30.228Z,33.00
2022-12-22T15:59:57.066Z,29.57
2022-12-22T16:02:24.371Z,28.67
2022-12-22T16:04:51.248Z,29.50
2022-12-22T16:07:18.096Z,24.83
2022-12-22T16:09:47.593Z,33.90
2022-12-22T16:12:17.017Z,22.60
2022-12-22T16:14:50.622Z,23.27
2022-12-22T16:17:19.686Z,21.77
2022-12-22T16:19:47.171Z,22.40
2022-12-22T16:22:15.925Z,26.70
2022-12-22T16:24:45.574Z,20.80
2022-12-22T16:27:15.363Z,24.07
2022-12-22T16:29:45.821Z,21.53
2022-12-22T16:32:18.409Z,26.03
2022-12-22T16:34:45.565Z,21.30
2022-12-22T16:37:12.760Z,19.17
2022-12-22T16:39:39.671Z,17.27
2022-12-22T16:42:11.465Z,20.03
2022-12-22T16:44:48.922Z,17.23
2022-12-22T16:47:18.547Z,18.53
2022-12-22T16:49:46.875Z,18.83
2022-12-22T16:52:19.257Z,19.10
2022-12-22T16:54:52.302Z,21.20
2022-12-22T16:57:19.870Z,21.43
2022-12-22T16:59:48.158Z,23.60
2022-12-22T17:02:23.664Z,20.83
2022-12-22T17:04:51.787Z,18.13
2022-12-22T17:07:20.991Z,49.30
2022-12-22T17:09:50.185Z,23.70
2022-12-22T17:12:19.235Z,16.90
2022-12-22T17:14:48.929Z,15.87
2022-12-22T17:17:17.425Z,19.00
2022-12-22T17:19:44.789Z,17.63
2022-12-22T17:22:22.315Z,19.03
2022-12-22T17:24:50.265Z,22.07
2022-12-22T17:27:21.865Z,18.97
2022-12-22T17:29:50.668Z,17.13
2022-12-22T17:32:20.473Z,21.97
2022-12-22T17:34:47.363Z,21.77
2022-12-22T17:37:15.616Z,18.50
2022-12-22T17:39:43.683Z,17.57
2022-12-22T17:42:17.459Z,17.40
2022-12-22T17:44:44.946Z,24.07
2022-12-22T17:47:15.575Z,22.30
2022-12-22T17:49:43.328Z,20.07
2022-12-22T17:52:17.215Z,22.77
2022-12-22T17:54:44.748Z,17.70
2022-12-22T17:57:16.421Z,22.23
2022-12-22T17:59:43.487Z,20.67
2022-12-22T18:02:16.854Z,16.60
2022-12-22T18:04:43.944Z,17.30
2022-12-22T18:07:11.478Z,20.73
2022-12-22T18:09:38.747Z,15.90
2022-12-22T18:12:14.212Z,14.97
2022-12-22T18:14:41.190Z,17.23
2022-12-22T18:17:20.813Z,19.87
2022-12-22T18:19:47.702Z,14.27
2022-12-22T18:22:17.527Z,15.00
2022-12-22T18:24:44.407Z,22.87
2022-12-22T18:27:12.465Z,17.77
2022-12-22T18:29:39.374Z,15.33
2022-12-22T18:32:09.278Z,22.00
2022-12-22T18:34:38.865Z,14.43
2022-12-22T18:37:12.662Z,20.63
2022-12-22T18:39:44.513Z,18.30
2022-12-22T18:42:22.651Z,21.40
2022-12-22T18:44:50.290Z,22.17
2022-12-22T18:47:17.550Z,17.87
2022-12-22T18:49:46.096Z,19.33
2022-12-22T18:52:17.487Z,20.97
2022-12-22T18:54:44.857Z,17.10
2022-12-22T18:57:14.080Z,17.87
2022-12-22T18:59:41.700Z,14.80
2022-12-22T19:02:21.603Z,15.70
2022-12-22T19:04:50.568Z,19.33
2022-12-22T19:07:21.781Z,18.80
2022-12-22T19:09:49.527Z,19.80
2022-12-22T19:12:19.812Z,22.23
2022-12-22T19:14:49.176Z,23.83
2022-12-22T19:17:20.190Z,19.23
2022-12-22T19:19:47.352Z,19.37
2022-12-22T19:22:16.578Z,23.10
2022-12-22T19:24:46.625Z,20.73
2022-12-22T19:27:16.549Z,27.03
2022-12-22T19:29:43.846Z,25.53
2022-12-22T19:32:21.133Z,26.63
2022-12-22T19:34:48.179Z,25.47
2022-12-22T19:37:17.153Z,25.03
2022-12-22T19:39:44.056Z,25.33
2022-12-22T19:42:14.523Z,27.40
2022-12-22T19:44:42.866Z,24.87
2022-12-22T19:47:17.401Z,24.00
2022-12-22T19:49:44.373Z,23.87
2022-12-22T19:52:11.175Z,23.33
2022-12-22T19:54:39.481Z,25.20
2022-12-22T19:57:08.533Z,25.80
2022-12-22T19:59:39.566Z,23.43
2022-12-22T20:02:24.613Z,23.30
2022-12-22T20:04:52.252Z,23.77
2022-12-22T20:07:21.581Z,28.13
2022-12-22T20:09:50.103Z,23.30
2022-12-22T20:12:25.028Z,25.30
2022-12-22T20:14:52.930Z,30.57
2022-12-22T20:17:20.362Z,30.93
2022-12-22T20:19:47.346Z,28.23
2022-12-22T20:22:16.511Z,29.93
2022-12-22T20:24:44.202Z,30.80
2022-12-22T20:27:17.997Z,32.57
2022-12-22T20:29:44.873Z,29.20
2022-12-22T20:32:14.584Z,30.23
2022-12-22T20:34:42.028Z,34.03
2022-12-22T20:37:14.496Z,28.30
2022-12-22T20:39:41.613Z,31.47
2022-12-22T20:42:18.762Z,33.23
2022-12-22T20:45:03.874Z,31.23
2022-12-22T20:47:33.407Z,28.80
2022-12-22T20:50:00.367Z,25.80
2022-12-22T20:52:27.651Z,33.17
2022-12-22T20:54:54.493Z,32.33
2022-12-22T20:57:23.116Z,31.93
2022-12-22T20:59:55.616Z,34.57
2022-12-22T21:02:27.485Z,29.17
2022-12-22T21:04:54.784Z,35.63
2022-12-22T21:07:21.716Z,29.63
2022-12-22T21:09:48.566Z,29.47
2022-12-22T21:12:15.671Z,32.97
2022-12-22T21:14:44.715Z,28.53
2022-12-22T21:17:16.020Z,28.03
2022-12-22T21:19:42.910Z,27.30
2022-12-22T21:22:10.421Z,24.27
2022-12-22T21:24:37.355Z,25.83
2022-12-22T21:27:05.356Z,28.87
2022-12-22T21:29:32.271Z,30.20
2022-12-22T21:32:00.507Z,22.20
2022-12-22T21:34:27.388Z,24.90
2022-12-22T21:36:59.301Z,22.80
2022-12-22T21:39:31.383Z,26.90
2022-12-22T21:42:01.912Z,22.23
2022-12-22T21:44:30.251Z,23.13
2022-12-22T21:46:57.951Z,20.00
2022-12-22T21:49:28.050Z,23.00
2022-12-22T21:51:55.803Z,21.07
2022-12-22T21:54:24.710Z,21.10
2022-12-22T21:56:53.142Z,27.30
2022-12-22T21:59:20.757Z,26.33
2022-12-22T22:01:53.948Z,21.57
2022-12-22T22:04:21.970Z,31.40
2022-12-22T22:06:50.321Z,24.07
2022-12-22T22:09:17.533Z,27.43
2022-12-22T22:12:03.060Z,21.57
2022-12-22T22:14:29.941Z,27.47
2022-12-22T22:16:56.766Z,24.70
2022-12-22T22:19:24.115Z,25.00
2022-12-22T22:21:52.332Z,26.13
2022-12-22T22:24:20.017Z,29.10
2022-12-22T22:26:49.244Z,25.50
2022-12-22T22:29:16.554Z,23.67
2022-12-22T22:31:49.155Z,25.87
2022-12-22T22:34:21.072Z,28.10
2022-12-22T22:36:52.618Z,25.30
2022-12-22T22:39:28.812Z,25.73
2022-12-22T22:42:02.213Z,28.57
2022-12-22T22:44:29.256Z,28.70
2022-12-22T22:46:56.424Z,25.00
2022-12-22T22:49:28.356Z,26.20
2022-12-22T22:51:57.388Z,25.87
2022-12-22T22:54:24.252Z,27.83
2022-12-22T22:56:52.150Z,26.00
2022-12-22T22:59:19.175Z,46.57
2022-12-22T23:01:46.378Z,36.83
2022-12-22T23:04:13.333Z,45.13
2022-12-22T23:06:41.960Z,32.87
2022-12-22T23:09:10.412Z,24.97
2022-12-22T23:11:37.597Z,25.13
2022-12-22T23:14:04.531Z,23.10
2022-12-22T23:16:37.650Z,28.10
2022-12-22T23:19:05.475Z,28.87
2022-12-22T23:21:32.924Z,26.80
2022-12-22T23:23:59.723Z,24.70
2022-12-22T23:26:28.365Z,23.53
2022-12-22T23:29:01.001Z,25.17
2022-12-22T23:31:30.266Z,30.77
2022-12-22T23:33:57.308Z,25.70
2022-12-22T23:36:24.578Z,28.63
2022-12-22T23:38:51.865Z,27.20
2022-12-22T23:41:19.538Z,28.20
2022-12-22T23:43:47.724Z,24.57
2022-12-22T23:46:17.177Z,25.60
2022-12-22T23:48:44.322Z,23.23
2022-12-22T23:51:11.903Z,22.77
2022-12-22T23:53:39.131Z,27.93
2022-12-22T23:56:06.809Z,23.40
2022-12-22T23:58:34.031Z,23.20
